createdAt,value
2023-03-06T00:01:57.609Z,80.97
2023-03-06T00:04:23.984Z,80.69
2023-03-06T00:06:50.329Z,80.53
2023-03-06T00:09:16.704Z,81.64
2023-03-06T00:11:43.025Z,82.22
2023-03-06T00:14:09.368Z,80.90
2023-03-06T00:16:35.812Z,80.56
2023-03-06T00:19:02.190Z,81.20
2023-03-06T00:21:28.538Z,82.31
2023-03-06T00:23:54.930Z,83.08
2023-03-06T00:26:21.325Z,82.45
2023-03-06T00:28:47.765Z,82.06
2023-03-06T00:31:16.455Z,82.70
2023-03-06T00:33:43.502Z,83.39
2023-03-06T00:36:10.163Z,82.47
2023-03-06T00:38:37.200Z,82.62
2023-03-06T00:41:03.560Z,83.18
2023-03-06T00:43:29.937Z,83.97
2023-03-06T00:45:56.372Z,83.31
2023-03-06T00:48:22.759Z,82.62
2023-03-06T00:50:51.585Z,81.97
2023-03-06T00:53:17.919Z,81.39
2023-03-06T00:55:44.432Z,80.69
2023-03-06T00:58:10.899Z,82.52
2023-03-06T01:00:37.346Z,81.85
2023-03-06T01:03:03.670Z,81.14
2023-03-06T01:05:30.041Z,82.49
2023-03-06T01:07:56.451Z,83.97
2023-03-06T01:10:22.802Z,82.00
2023-03-06T01:12:49.185Z,82.32
2023-03-06T01:15:15.578Z,82.05
2023-03-06T01:17:41.982Z,82.71
2023-03-06T01:20:09.042Z,82.67
2023-03-06T01:22:35.388Z,82.71
2023-03-06T01:25:01.722Z,82.84
2023-03-06T01:27:28.153Z,81.98
2023-03-06T01:29:54.507Z,81.85
2023-03-06T01:32:21.607Z,82.37
2023-03-06T01:34:48.061Z,83.06
2023-03-06T01:37:14.419Z,82.20
2023-03-06T01:39:40.793Z,81.64
2023-03-06T01:42:07.189Z,81.23
2023-03-06T01:44:33.528Z,80.98
2023-03-06T01:47:02.279Z,81.54
2023-03-06T01:49:29.402Z,81.03
2023-03-06T01:51:55.772Z,80.52
2023-03-06T01:54:22.174Z,81.78
2023-03-06T01:56:48.581Z,81.19
2023-03-06T01:59:15.005Z,80.47
2023-03-06T02:01:41.393Z,82.07
2023-03-06T02:04:07.911Z,81.43
2023-03-06T02:06:34.295Z,82.24
2023-03-06T02:09:02.719Z,82.88
2023-03-06T02:11:29.083Z,84.57
2023-03-06T02:13:55.551Z,82.21
2023-03-06T02:16:22.013Z,81.47
2023-03-06T02:18:48.352Z,81.51
2023-03-06T02:21:14.739Z,81.06
2023-03-06T02:23:41.218Z,80.76
2023-03-06T02:26:08.184Z,81.63
2023-03-06T02:28:34.679Z,81.26
2023-03-06T02:31:01.243Z,79.76
2023-03-06T02:33:27.689Z,81.98
2023-03-06T02:35:56.293Z,81.44
2023-03-06T02:38:22.661Z,79.96
2023-03-06T02:40:49.340Z,81.21
2023-03-06T02:43:15.729Z,81.06
2023-03-06T02:45:44.366Z,81.15
2023-03-06T02:48:11.937Z,80.35
2023-03-06T02:50:38.314Z,80.74
2023-03-06T02:53:04.681Z,80.62
2023-03-06T02:55:31.070Z,80.23
2023-03-06T02:57:57.633Z,80.30
2023-03-06T03:00:24.657Z,79.29
2023-03-06T03:02:51.037Z,81.36
2023-03-06T03:05:17.437Z,80.46
2023-03-06T03:07:47.545Z,80.30
2023-03-06T03:10:14.345Z,80.16
2023-03-06T03:12:41.243Z,79.71
2023-03-06T03:15:07.754Z,78.94
2023-03-06T03:17:34.256Z,79.62
2023-03-06T03:20:00.630Z,79.43
2023-03-06T03:22:27.214Z,79.95
2023-03-06T03:24:53.638Z,80.30
2023-03-06T03:27:20.818Z,80.00
2023-03-06T03:29:47.324Z,80.52
2023-03-06T03:32:13.802Z,79.36
2023-03-06T03:34:41.742Z,80.19
2023-03-06T03:37:08.138Z,80.57
2023-03-06T03:39:34.528Z,80.46
2023-03-06T03:42:02.781Z,81.24
2023-03-06T03:44:29.345Z,81.52
2023-03-06T03:46:56.284Z,81.38
2023-03-06T03:49:23.678Z,81.57
2023-03-06T03:51:50.508Z,81.57
2023-03-06T03:54:18.027Z,80.18
2023-03-06T03:56:46.964Z,79.60
2023-03-06T03:59:19.504Z,80.21
2023-03-06T04:01:57.175Z,79.65
2023-03-06T04:04:24.421Z,81.07
2023-03-06T04:06:50.931Z,79.61
2023-03-06T04:09:18.634Z,79.48
2023-03-06T04:11:45.324Z,79.33
2023-03-06T04:14:11.796Z,77.82
2023-03-06T04:16:38.882Z,78.63
2023-03-06T04:19:06.328Z,78.91
2023-03-06T04:21:33.454Z,78.94
2023-03-06T04:24:00.047Z,78.85
2023-03-06T04:26:26.436Z,78.16
2023-03-06T04:28:52.910Z,79.47
2023-03-06T04:31:20.414Z,79.43
2023-03-06T04:33:46.851Z,79.36
2023-03-06T04:36:13.276Z,78.98
2023-03-06T04:38:39.704Z,80.11
2023-03-06T04:41:06.241Z,80.68
2023-03-06T04:43:32.764Z,80.95
2023-03-06T04:45:59.206Z,80.61
2023-03-06T04:48:25.603Z,79.62
2023-03-06T04:50:52.162Z,80.22
2023-03-06T04:53:19.610Z,79.73
2023-03-06T04:55:46.272Z,79.62
2023-03-06T04:58:12.690Z,79.74
2023-03-06T05:00:39.090Z,79.13
2023-03-06T05:03:05.418Z,79.46
2023-03-06T05:05:31.747Z,80.15
2023-03-06T05:07:58.167Z,80.19
2023-03-06T05:10:24.552Z,77.86
2023-03-06T05:12:50.934Z,78.65
2023-03-06T05:15:17.345Z,77.82
2023-03-06T05:17:43.704Z,78.94
2023-03-06T05:20:10.078Z,78.01
2023-03-06T05:22:36.492Z,78.46
2023-03-06T05:25:03.158Z,78.40
2023-03-06T05:27:29.527Z,78.73
2023-03-06T05:29:55.982Z,78.38
2023-03-06T05:32:22.379Z,77.94
2023-03-06T05:34:48.743Z,77.58
2023-03-06T05:37:15.118Z,76.86
2023-03-06T05:39:41.741Z,77.81
2023-03-06T05:42:08.102Z,79.03
2023-03-06T05:44:34.497Z,80.32
2023-03-06T05:47:00.852Z,79.30
2023-03-06T05:49:27.199Z,78.47
2023-03-06T05:51:53.553Z,79.17
2023-03-06T05:54:19.963Z,79.70
2023-03-06T05:56:46.323Z,77.00
2023-03-06T05:59:12.684Z,76.60
2023-03-06T06:01:39.095Z,76.51
2023-03-06T06:04:05.453Z,76.89
2023-03-06T06:06:31.818Z,76.46
2023-03-06T06:08:58.206Z,76.12
2023-03-06T06:11:24.591Z,77.38
2023-03-06T06:13:50.976Z,76.79
2023-03-06T06:16:18.876Z,76.88
2023-03-06T06:18:45.231Z,78.25
2023-03-06T06:21:11.593Z,77.15
2023-03-06T06:23:37.987Z,78.21
2023-03-06T06:26:04.352Z,76.20
2023-03-06T06:28:30.702Z,77.40
2023-03-06T06:30:57.475Z,78.82
2023-03-06T06:33:23.816Z,78.67
2023-03-06T06:35:50.253Z,77.36
2023-03-06T06:38:16.637Z,78.24
2023-03-06T06:40:43.028Z,78.39
2023-03-06T06:43:09.380Z,77.67
2023-03-06T06:45:35.827Z,79.21
2023-03-06T06:48:02.226Z,78.79
2023-03-06T06:50:28.707Z,80.94
2023-03-06T06:52:55.094Z,80.62
2023-03-06T06:55:21.462Z,79.30
2023-03-06T06:57:47.852Z,79.05
2023-03-06T07:00:14.252Z,77.95
2023-03-06T07:02:40.670Z,79.53
2023-03-06T07:05:07.016Z,80.97
2023-03-06T07:07:33.390Z,79.19
2023-03-06T07:09:59.845Z,79.38
2023-03-06T07:12:26.232Z,79.70
2023-03-06T07:14:52.560Z,78.15
2023-03-06T07:17:19.025Z,78.57
2023-03-06T07:19:45.378Z,78.73
2023-03-06T07:22:12.036Z,78.21
2023-03-06T07:24:38.372Z,80.25
2023-03-06T07:27:04.692Z,78.32
2023-03-06T07:29:32.940Z,79.03
2023-03-06T07:31:59.337Z,79.72
2023-03-06T07:34:25.747Z,78.69
2023-03-06T07:36:52.126Z,79.10
2023-03-06T07:39:18.556Z,78.71
2023-03-06T07:41:44.912Z,78.61
2023-03-06T07:44:11.262Z,79.46
2023-03-06T07:46:37.662Z,79.37
2023-03-06T07:49:04.073Z,79.23
2023-03-06T07:51:30.426Z,78.45
2023-03-06T07:53:56.839Z,79.16
2023-03-06T07:56:23.235Z,76.93
2023-03-06T07:58:49.645Z,78.52
2023-03-06T08:01:16.054Z,78.40
2023-03-06T08:03:42.609Z,77.48
2023-03-06T08:06:09.066Z,77.28
2023-03-06T08:08:35.438Z,77.95
2023-03-06T08:11:01.867Z,77.17
2023-03-06T08:13:28.244Z,77.67
2023-03-06T08:15:54.675Z,77.18
2023-03-06T08:18:21.132Z,78.02
2023-03-06T08:20:47.492Z,78.51
2023-03-06T08:23:13.929Z,78.68
2023-03-06T08:25:40.312Z,79.48
2023-03-06T08:28:06.724Z,78.86
2023-03-06T08:30:33.066Z,79.37
2023-03-06T08:32:59.804Z,78.34
2023-03-06T08:35:26.191Z,78.39
2023-03-06T08:37:52.576Z,77.64
2023-03-06T08:40:18.962Z,77.96
2023-03-06T08:42:45.383Z,78.29
2023-03-06T08:45:11.745Z,77.67
2023-03-06T08:47:38.179Z,77.98
2023-03-06T08:50:04.537Z,78.61
2023-03-06T08:52:31.073Z,78.93
2023-03-06T08:54:58.008Z,79.74
2023-03-06T08:57:24.414Z,79.67
2023-03-06T08:59:50.814Z,78.48
2023-03-06T09:02:17.232Z,78.64
2023-03-06T09:04:43.606Z,79.09
2023-03-06T09:07:10.009Z,78.99
2023-03-06T09:09:36.428Z,78.03
2023-03-06T09:12:02.781Z,78.71
2023-03-06T09:14:29.173Z,79.53
2023-03-06T09:16:55.632Z,79.66
2023-03-06T09:19:22.049Z,79.37
2023-03-06T09:21:49.151Z,79.58
2023-03-06T09:24:15.510Z,79.11
2023-03-06T09:26:47.029Z,80.35
2023-03-06T09:29:16.223Z,79.47
2023-03-06T09:31:42.710Z,79.51
2023-03-06T09:34:09.106Z,78.25
2023-03-06T09:36:49.298Z,79.52
2023-03-06T09:39:21.600Z,79.53
2023-03-06T09:41:47.973Z,78.96
2023-03-06T09:44:14.694Z,78.85
2023-03-06T09:46:41.052Z,80.03
2023-03-06T09:49:10.290Z,79.62
2023-03-06T09:51:36.701Z,80.29
2023-03-06T09:54:03.141Z,78.84
2023-03-06T09:56:31.140Z,78.36
2023-03-06T09:58:57.528Z,78.40
2023-03-06T10:01:23.903Z,78.74
2023-03-06T10:03:50.257Z,78.07
2023-03-06T10:06:16.618Z,78.51
2023-03-06T10:08:42.937Z,76.66
2023-03-06T10:11:09.351Z,76.13
2023-03-06T10:13:35.864Z,76.53
2023-03-06T10:16:02.319Z,77.52
2023-03-06T10:18:28.715Z,78.07
2023-03-06T10:20:55.105Z,78.41
2023-03-06T10:23:24.713Z,76.70
2023-03-06T10:25:51.109Z,74.71
2023-03-06T10:28:17.475Z,74.63
2023-03-06T10:30:44.167Z,73.70
2023-03-06T10:33:10.664Z,73.67
2023-03-06T10:35:36.983Z,73.07
2023-03-06T10:38:03.446Z,72.33
2023-03-06T10:40:29.825Z,71.71
2023-03-06T10:43:09.551Z,71.29
2023-03-06T10:45:48.688Z,71.75
2023-03-06T10:48:15.729Z,72.04
2023-03-06T10:50:42.061Z,72.04
2023-03-06T10:53:08.481Z,71.91
2023-03-06T10:55:34.853Z,72.01
2023-03-06T10:58:01.239Z,71.22
2023-03-06T11:00:27.676Z,73.14
2023-03-06T11:02:54.023Z,72.86
2023-03-06T11:05:20.409Z,69.83
2023-03-06T11:07:46.806Z,69.78
2023-03-06T11:10:13.163Z,70.95
2023-03-06T11:12:39.688Z,70.01
2023-03-06T11:15:06.110Z,69.21
2023-03-06T11:17:32.600Z,69.40
2023-03-06T11:19:58.988Z,68.74
2023-03-06T11:22:25.360Z,69.93
2023-03-06T11:24:51.760Z,66.81
2023-03-06T11:27:18.221Z,68.92
2023-03-06T11:29:44.697Z,69.14
2023-03-06T11:32:11.118Z,69.10
2023-03-06T11:34:37.547Z,67.62
2023-03-06T11:37:03.911Z,64.14
2023-03-06T11:39:30.264Z,62.43
2023-03-06T11:41:56.675Z,62.60
2023-03-06T11:44:24.548Z,63.73
2023-03-06T11:46:51.062Z,64.63
2023-03-06T11:49:17.514Z,63.95
2023-03-06T11:51:43.882Z,61.79
2023-03-06T11:54:10.226Z,64.22
2023-03-06T11:56:36.725Z,63.43
2023-03-06T11:59:03.187Z,63.38
2023-03-06T12:01:29.587Z,64.61
2023-03-06T12:03:57.855Z,65.25
2023-03-06T12:06:24.335Z,63.18
2023-03-06T12:08:50.695Z,62.49
2023-03-06T12:13:44.387Z,59.31
2023-03-06T12:16:10.813Z,57.13
2023-03-06T12:18:37.286Z,56.30
2023-03-06T12:21:03.994Z,54.91
2023-03-06T12:23:30.480Z,55.13
2023-03-06T12:25:56.888Z,55.39
2023-03-06T12:28:23.335Z,53.88
2023-03-06T12:30:49.814Z,52.80
2023-03-06T12:33:16.200Z,53.28
2023-03-06T12:35:42.700Z,52.38
2023-03-06T12:38:09.122Z,50.48
2023-03-06T12:40:35.546Z,51.36
2023-03-06T12:43:01.958Z,51.61
2023-03-06T12:45:28.255Z,53.33
2023-03-06T12:47:55.414Z,52.47
2023-03-06T12:50:21.872Z,52.02
2023-03-06T12:52:48.461Z,51.59
2023-03-06T12:55:15.049Z,54.13
2023-03-06T12:57:41.932Z,53.14
2023-03-06T13:00:08.564Z,54.10
2023-03-06T13:02:35.021Z,53.42
2023-03-06T13:05:01.511Z,52.95
2023-03-06T13:07:28.010Z,51.91
2023-03-06T13:09:54.416Z,52.68
2023-03-06T13:12:20.825Z,53.76
2023-03-06T13:14:54.118Z,53.29
2023-03-06T13:17:20.692Z,55.68
2023-03-06T13:19:47.108Z,53.29
2023-03-06T13:22:13.484Z,53.20
2023-03-06T13:24:39.909Z,54.67
2023-03-06T13:27:06.284Z,56.73
2023-03-06T13:29:32.649Z,54.13
2023-03-06T13:31:59.041Z,52.43
2023-03-06T13:34:25.391Z,53.33
2023-03-06T13:36:51.850Z,56.52
2023-03-06T13:39:18.202Z,56.59
2023-03-06T13:41:44.666Z,57.98
2023-03-06T13:44:11.047Z,57.19
2023-03-06T13:46:37.601Z,57.94
2023-03-06T13:49:04.125Z,56.57
2023-03-06T13:51:30.499Z,57.94
2023-03-06T13:53:56.939Z,61.11
2023-03-06T13:56:23.386Z,62.69
2023-03-06T13:58:49.888Z,61.71
2023-03-06T14:01:16.465Z,61.81
2023-03-06T14:03:42.865Z,61.75
2023-03-06T14:06:09.367Z,60.97
2023-03-06T14:08:35.767Z,61.07
2023-03-06T14:11:02.228Z,60.14
2023-03-06T14:13:35.120Z,61.35
2023-03-06T14:16:04.988Z,61.94
2023-03-06T14:18:31.450Z,62.00
2023-03-06T14:20:57.872Z,62.78
2023-03-06T14:23:24.239Z,61.48
2023-03-06T14:25:50.618Z,60.64
2023-03-06T14:28:16.942Z,60.49
2023-03-06T14:30:43.311Z,62.89
2023-03-06T14:33:09.807Z,62.41
2023-03-06T14:35:36.398Z,60.83
2023-03-06T14:38:02.848Z,62.50
2023-03-06T14:40:29.215Z,63.57
2023-03-06T14:42:55.572Z,63.46
2023-03-06T14:45:23.760Z,62.75
2023-03-06T14:47:50.299Z,62.73
2023-03-06T14:50:16.706Z,62.96
2023-03-06T14:52:43.069Z,62.61
2023-03-06T14:55:09.417Z,62.47
2023-03-06T14:57:35.839Z,62.07
2023-03-06T15:00:03.916Z,61.83
2023-03-06T15:02:32.809Z,63.16
2023-03-06T15:04:59.225Z,62.78
2023-03-06T15:07:25.872Z,62.74
2023-03-06T15:09:52.223Z,63.88
2023-03-06T15:12:18.590Z,62.28
2023-03-06T15:14:44.964Z,63.03
2023-03-06T15:17:11.306Z,63.48
2023-03-06T15:19:37.662Z,62.66
2023-03-06T15:22:04.035Z,62.27
2023-03-06T15:24:30.445Z,61.84
2023-03-06T15:26:56.777Z,61.56
2023-03-06T15:29:23.723Z,62.36
2023-03-06T15:31:50.269Z,62.23
2023-03-06T15:34:17.215Z,62.63
2023-03-06T15:36:43.691Z,62.23
2023-03-06T15:39:10.066Z,62.77
2023-03-06T15:41:36.431Z,62.78
2023-03-06T15:44:02.812Z,63.29
2023-03-06T15:46:29.219Z,62.43
2023-03-06T15:48:55.621Z,62.60
2023-03-06T15:51:22.076Z,63.04
2023-03-06T15:53:49.271Z,63.26
2023-03-06T15:56:15.956Z,64.58
2023-03-06T15:58:42.579Z,63.68
2023-03-06T16:01:08.986Z,63.67
2023-03-06T16:03:35.366Z,65.21
2023-03-06T16:06:01.728Z,64.82
2023-03-06T16:08:28.812Z,64.60
2023-03-06T16:10:55.558Z,64.40
2023-03-06T16:13:21.994Z,64.14
2023-03-06T16:15:48.444Z,65.67
2023-03-06T16:18:14.792Z,65.24
2023-03-06T16:20:41.643Z,67.78
2023-03-06T16:23:10.395Z,68.86
2023-03-06T16:25:36.940Z,68.33
2023-03-06T16:28:04.606Z,67.82
2023-03-06T16:30:32.106Z,69.73
2023-03-06T16:32:59.014Z,70.59
2023-03-06T16:35:25.499Z,70.64
2023-03-06T16:37:51.920Z,70.20
2023-03-06T16:40:18.384Z,70.83
2023-03-06T16:42:44.729Z,71.01
2023-03-06T16:45:11.174Z,70.44
2023-03-06T16:47:37.620Z,71.20
2023-03-06T16:50:04.176Z,71.61
2023-03-06T16:52:30.689Z,71.35
2023-03-06T16:54:57.126Z,71.06
2023-03-06T16:57:23.585Z,71.37
2023-03-06T16:59:51.091Z,72.14
2023-03-06T17:02:17.541Z,72.21
2023-03-06T17:04:43.912Z,71.84
2023-03-06T17:07:10.545Z,71.88
2023-03-06T17:09:36.888Z,71.38
2023-03-06T17:12:03.233Z,70.96
2023-03-06T17:14:29.827Z,70.65
2023-03-06T17:16:56.263Z,70.62
2023-03-06T17:19:23.054Z,69.27
2023-03-06T17:21:49.407Z,68.65
2023-03-06T17:24:15.796Z,69.41
2023-03-06T17:26:43.400Z,68.70
2023-03-06T17:29:09.769Z,68.44
2023-03-06T17:31:36.209Z,67.68
2023-03-06T17:34:02.559Z,67.47
2023-03-06T17:36:28.985Z,67.88
2023-03-06T17:38:55.546Z,67.86
2023-03-06T17:41:24.430Z,67.45
2023-03-06T17:43:52.321Z,67.61
2023-03-06T17:46:21.277Z,68.11
2023-03-06T17:48:48.060Z,67.05
2023-03-06T17:51:14.655Z,67.29
2023-03-06T17:53:41.589Z,68.44
2023-03-06T17:56:08.119Z,67.69
2023-03-06T17:58:34.611Z,69.05
2023-03-06T18:01:01.079Z,69.85
2023-03-06T18:03:27.599Z,69.74
2023-03-06T18:05:54.013Z,69.16
2023-03-06T18:08:20.356Z,69.44
2023-03-06T18:10:47.621Z,69.39
2023-03-06T18:13:14.192Z,70.55
2023-03-06T18:15:41.244Z,70.64
2023-03-06T18:18:08.144Z,70.69
2023-03-06T18:20:34.629Z,71.03
2023-03-06T18:23:03.524Z,70.53
2023-03-06T18:25:30.256Z,70.42
2023-03-06T18:27:56.639Z,69.93
2023-03-06T18:30:23.019Z,70.29
2023-03-06T18:32:49.530Z,70.74
2023-03-06T18:35:15.951Z,70.44
2023-03-06T18:37:42.591Z,69.57
2023-03-06T18:40:09.018Z,69.19
2023-03-06T18:42:35.379Z,69.64
2023-03-06T18:45:02.655Z,69.10
2023-03-06T18:47:29.118Z,69.26
2023-03-06T18:49:55.528Z,69.22
2023-03-06T18:52:21.910Z,69.35
2023-03-06T18:54:50.373Z,68.82
2023-03-06T18:57:16.745Z,68.53
2023-03-06T18:59:43.128Z,67.68
2023-03-06T19:02:09.499Z,67.84
2023-03-06T19:04:35.891Z,67.53
2023-03-06T19:07:02.270Z,66.61
2023-03-06T19:09:28.788Z,66.53
2023-03-06T19:11:55.627Z,66.39
2023-03-06T19:14:22.025Z,65.66
2023-03-06T19:16:48.441Z,64.97
2023-03-06T19:19:14.838Z,65.30
2023-03-06T19:21:41.195Z,64.42
2023-03-06T19:24:13.227Z,64.24
2023-03-06T19:26:40.072Z,65.60
2023-03-06T19:29:06.406Z,64.26
2023-03-06T19:31:32.977Z,66.54
2023-03-06T19:33:59.341Z,66.52
2023-03-06T19:36:27.683Z,65.18
2023-03-06T19:38:54.478Z,65.87
2023-03-06T19:41:20.808Z,65.94
2023-03-06T19:43:47.211Z,65.41
2023-03-06T19:46:13.918Z,65.82
2023-03-06T19:48:41.186Z,65.18
2023-03-06T19:51:07.549Z,64.99
2023-03-06T19:53:35.206Z,64.15
2023-03-06T19:56:01.640Z,63.70
2023-03-06T19:58:27.995Z,64.87
2023-03-06T20:00:54.328Z,64.80
2023-03-06T20:03:20.909Z,63.62
2023-03-06T20:05:47.445Z,64.68
2023-03-06T20:08:14.366Z,63.77
2023-03-06T20:10:40.920Z,64.35
2023-03-06T20:13:07.278Z,63.75
2023-03-06T20:15:35.056Z,64.08
2023-03-06T20:18:01.578Z,63.61
2023-03-06T20:20:28.033Z,63.33
2023-03-06T20:22:54.785Z,62.61
2023-03-06T20:25:21.222Z,62.53
2023-03-06T20:27:47.706Z,62.41
2023-03-06T20:30:14.121Z,62.93
2023-03-06T20:32:40.558Z,63.39
2023-03-06T20:35:06.986Z,62.40
2023-03-06T20:37:33.553Z,63.60
2023-03-06T20:39:59.958Z,64.49
2023-03-06T20:42:26.473Z,64.07
2023-03-06T20:44:52.986Z,65.07
2023-03-06T20:47:19.412Z,64.79
2023-03-06T20:49:45.789Z,66.16
2023-03-06T20:52:12.141Z,65.99
2023-03-06T20:54:38.649Z,65.99
2023-03-06T20:57:05.213Z,65.69
2023-03-06T20:59:31.738Z,65.29
2023-03-06T21:01:58.529Z,64.86
2023-03-06T21:04:25.084Z,65.46
2023-03-06T21:06:51.583Z,64.40
2023-03-06T21:09:18.272Z,65.12
2023-03-06T21:11:44.965Z,65.44
2023-03-06T21:14:13.216Z,65.97
2023-03-06T21:16:39.568Z,66.55
2023-03-06T21:19:07.197Z,65.10
2023-03-06T21:21:33.569Z,65.15
2023-03-06T21:24:00.079Z,66.38
2023-03-06T21:26:26.845Z,66.65
2023-03-06T21:28:53.649Z,67.68
2023-03-06T21:31:20.154Z,67.76
2023-03-06T21:33:46.964Z,68.08
2023-03-06T21:36:13.404Z,69.01
2023-03-06T21:38:39.797Z,70.63
2023-03-06T21:41:06.200Z,71.08
2023-03-06T21:43:33.088Z,72.68
2023-03-06T21:45:59.540Z,74.32
2023-03-06T21:48:25.906Z,74.93
2023-03-06T21:50:52.309Z,75.40
2023-03-06T21:53:18.996Z,76.25
2023-03-06T21:55:45.365Z,76.32
2023-03-06T21:58:11.797Z,76.67
2023-03-06T22:00:38.528Z,76.53
2023-03-06T22:03:05.073Z,78.14
2023-03-06T22:05:34.205Z,77.18
2023-03-06T22:08:00.691Z,77.53
2023-03-06T22:10:27.121Z,76.90
2023-03-06T22:12:53.490Z,76.88
2023-03-06T22:15:21.709Z,76.50
2023-03-06T22:17:48.628Z,76.71
2023-03-06T22:20:15.478Z,76.95
2023-03-06T22:22:42.271Z,77.02
2023-03-06T22:25:09.157Z,76.33
2023-03-06T22:27:35.500Z,77.80
2023-03-06T22:30:02.491Z,78.31
2023-03-06T22:32:28.796Z,77.52
2023-03-06T22:34:55.816Z,77.76
2023-03-06T22:37:22.315Z,78.51
2023-03-06T22:39:48.819Z,78.26
2023-03-06T22:42:15.259Z,76.98
2023-03-06T22:44:41.573Z,77.50
2023-03-06T22:47:08.346Z,78.77
2023-03-06T22:49:34.746Z,77.38
2023-03-06T22:52:01.167Z,78.84
2023-03-06T22:54:27.551Z,78.45
2023-03-06T22:56:56.763Z,79.42
2023-03-06T22:59:23.134Z,79.48
2023-03-06T23:01:49.475Z,78.25
2023-03-06T23:04:16.531Z,80.11
2023-03-06T23:06:46.916Z,80.91
2023-03-06T23:09:14.543Z,80.36
2023-03-06T23:11:59.329Z,81.11
2023-03-06T23:14:46.620Z,80.38
2023-03-06T23:17:34.728Z,82.18
2023-03-06T23:20:20.152Z,82.33
2023-03-06T23:23:05.170Z,83.00
2023-03-06T23:25:42.176Z,83.45
2023-03-06T23:28:08.570Z,83.04
2023-03-06T23:30:34.952Z,84.25
2023-03-06T23:33:01.359Z,84.93
2023-03-06T23:35:28.327Z,84.50
2023-03-06T23:37:55.081Z,84.67
2023-03-06T23:40:22.039Z,85.33
2023-03-06T23:42:48.775Z,84.90
2023-03-06T23:45:16.019Z,84.08
2023-03-06T23:47:42.571Z,84.98
2023-03-06T23:50:09.145Z,85.09
2023-03-06T23:52:35.751Z,85.16
2023-03-06T23:55:02.182Z,84.79
2023-03-06T23:57:28.543Z,85.33
2023-03-06T23:59:55.417Z,84.89
